sensor_id;sensor_type;location;lat;lon;timestamp;P1;durP1;ratioP1;P2;durP2;ratioP2
65581;SDS011;52231;40.090;18.348;2023-06-14T00:02:32;16.70;;;8.55;;
65581;SDS011;52231;40.090;18.348;2023-06-14T00:05:00;16.65;;;10.43;;
65581;SDS011;52231;40.090;18.348;2023-06-14T00:07:35;16.17;;;9.00;;
65581;SDS011;52231;40.090;18.348;2023-06-14T00:10:05;16.42;;;8.75;;
65581;SDS011;52231;40.090;18.348;2023-06-14T00:12:34;16.08;;;9.82;;
65581;SDS011;52231;40.090;18.348;2023-06-14T00:15:03;16.63;;;8.52;;
65581;SDS011;52231;40.090;18.348;2023-06-14T00:17:32;16.95;;;9.55;;
65581;SDS011;52231;40.090;18.348;2023-06-14T00:20:02;18.25;;;10.50;;
65581;SDS011;52231;40.090;18.348;2023-06-14T00:22:35;16.25;;;8.35;;
65581;SDS011;52231;40.090;18.348;2023-06-14T00:25:04;16.23;;;8.95;;
65581;SDS011;52231;40.090;18.348;2023-06-14T00:27:37;18.15;;;10.50;;
65581;SDS011;52231;40.090;18.348;2023-06-14T00:30:06;15.52;;;9.38;;
65581;SDS011;52231;40.090;18.348;2023-06-14T00:32:35;16.13;;;8.93;;
65581;SDS011;52231;40.090;18.348;2023-06-14T00:37:31;19.45;;;10.75;;
65581;SDS011;52231;40.090;18.348;2023-06-14T00:40:02;18.67;;;10.68;;
65581;SDS011;52231;40.090;18.348;2023-06-14T00:42:31;16.48;;;9.40;;
65581;SDS011;52231;40.090;18.348;2023-06-14T00:45:00;17.67;;;9.65;;
65581;SDS011;52231;40.090;18.348;2023-06-14T00:47:29;15.60;;;9.50;;
65581;SDS011;52231;40.090;18.348;2023-06-14T00:52:26;14.32;;;8.25;;
65581;SDS011;52231;40.090;18.348;2023-06-14T00:54:55;17.17;;;10.30;;
65581;SDS011;52231;40.090;18.348;2023-06-14T00:59:51;16.67;;;9.38;;
65581;SDS011;52231;40.090;18.348;2023-06-14T01:02:25;16.25;;;9.93;;
65581;SDS011;52231;40.090;18.348;2023-06-14T01:04:54;16.30;;;8.85;;
65581;SDS011;52231;40.090;18.348;2023-06-14T01:16:17;16.58;;;8.63;;
65581;SDS011;52231;40.090;18.348;2023-06-14T01:21:22;15.75;;;8.48;;
65581;SDS011;52231;40.090;18.348;2023-06-14T01:23:51;16.65;;;8.93;;
65581;SDS011;52231;40.090;18.348;2023-06-14T01:26:22;16.95;;;8.68;;
65581;SDS011;52231;40.090;18.348;2023-06-14T01:28:51;14.38;;;8.38;;
65581;SDS011;52231;40.090;18.348;2023-06-14T01:31:25;16.90;;;9.05;;
65581;SDS011;52231;40.090;18.348;2023-06-14T01:33:54;16.40;;;9.10;;
65581;SDS011;52231;40.090;18.348;2023-06-14T01:36:23;19.73;;;9.18;;
65581;SDS011;52231;40.090;18.348;2023-06-14T01:38:57;14.48;;;7.53;;
65581;SDS011;52231;40.090;18.348;2023-06-14T01:41:27;15.43;;;9.20;;
65581;SDS011;52231;40.090;18.348;2023-06-14T01:43:57;14.68;;;7.40;;
65581;SDS011;52231;40.090;18.348;2023-06-14T01:46:26;13.82;;;7.60;;
65581;SDS011;52231;40.090;18.348;2023-06-14T01:48:54;14.50;;;7.55;;
65581;SDS011;52231;40.090;18.348;2023-06-14T01:53:51;15.07;;;8.07;;
65581;SDS011;52231;40.090;18.348;2023-06-14T01:56:19;18.58;;;9.10;;
65581;SDS011;52231;40.090;18.348;2023-06-14T01:58:49;15.65;;;8.65;;
65581;SDS011;52231;40.090;18.348;2023-06-14T02:03:46;13.32;;;8.32;;
65581;SDS011;52231;40.090;18.348;2023-06-14T02:06:16;16.45;;;8.75;;
65581;SDS011;52231;40.090;18.348;2023-06-14T02:08:44;18.55;;;9.48;;
65581;SDS011;52231;40.090;18.348;2023-06-14T02:13:40;15.60;;;8.35;;
65581;SDS011;52231;40.090;18.348;2023-06-14T02:16:08;17.42;;;9.13;;
65581;SDS011;52231;40.090;18.348;2023-06-14T02:18:37;17.40;;;9.77;;
65581;SDS011;52231;40.090;18.348;2023-06-14T02:21:06;17.70;;;9.93;;
65581;SDS011;52231;40.090;18.348;2023-06-14T02:23:34;21.08;;;10.43;;
65581;SDS011;52231;40.090;18.348;2023-06-14T02:26:02;15.85;;;9.23;;
65581;SDS011;52231;40.090;18.348;2023-06-14T02:30:59;18.48;;;10.43;;
65581;SDS011;52231;40.090;18.348;2023-06-14T02:33:28;18.60;;;11.07;;
65581;SDS011;52231;40.090;18.348;2023-06-14T02:38:24;18.83;;;10.63;;
65581;SDS011;52231;40.090;18.348;2023-06-14T02:40:52;19.55;;;9.93;;
65581;SDS011;52231;40.090;18.348;2023-06-14T02:45:49;23.08;;;11.00;;
65581;SDS011;52231;40.090;18.348;2023-06-14T02:48:17;18.45;;;11.02;;
65581;SDS011;52231;40.090;18.348;2023-06-14T02:50:45;19.67;;;11.60;;
65581;SDS011;52231;40.090;18.348;2023-06-14T02:53:13;20.67;;;11.05;;
65581;SDS011;52231;40.090;18.348;2023-06-14T02:55:42;18.25;;;9.82;;
65581;SDS011;52231;40.090;18.348;2023-06-14T02:58:10;18.45;;;9.93;;
65581;SDS011;52231;40.090;18.348;2023-06-14T03:00:38;18.23;;;11.13;;
65581;SDS011;52231;40.090;18.348;2023-06-14T03:03:08;17.88;;;11.35;;
65581;SDS011;52231;40.090;18.348;2023-06-14T03:05:46;18.42;;;11.13;;
65581;SDS011;52231;40.090;18.348;2023-06-14T03:08:22;17.80;;;11.65;;
65581;SDS011;52231;40.090;18.348;2023-06-14T03:10:55;19.38;;;10.65;;
65581;SDS011;52231;40.090;18.348;2023-06-14T03:13:25;20.23;;;11.57;;
65581;SDS011;52231;40.090;18.348;2023-06-14T03:15:54;17.90;;;10.57;;
65581;SDS011;52231;40.090;18.348;2023-06-14T03:18:24;20.73;;;12.23;;
65581;SDS011;52231;40.090;18.348;2023-06-14T03:20:56;18.98;;;10.68;;
65581;SDS011;52231;40.090;18.348;2023-06-14T03:23:27;20.83;;;11.48;;
65581;SDS011;52231;40.090;18.348;2023-06-14T03:25:55;21.30;;;11.82;;
65581;SDS011;52231;40.090;18.348;2023-06-14T03:28:24;23.40;;;13.35;;
65581;SDS011;52231;40.090;18.348;2023-06-14T03:30:54;23.45;;;12.52;;
65581;SDS011;52231;40.090;18.348;2023-06-14T03:33:24;23.05;;;12.07;;
65581;SDS011;52231;40.090;18.348;2023-06-14T03:35:54;23.13;;;12.25;;
65581;SDS011;52231;40.090;18.348;2023-06-14T03:38:24;21.67;;;12.57;;
65581;SDS011;52231;40.090;18.348;2023-06-14T03:40:52;24.15;;;13.00;;
65581;SDS011;52231;40.090;18.348;2023-06-14T03:45:49;19.42;;;10.75;;
65581;SDS011;52231;40.090;18.348;2023-06-14T03:48:24;19.20;;;10.40;;
65581;SDS011;52231;40.090;18.348;2023-06-14T03:50:53;21.55;;;12.02;;
65581;SDS011;52231;40.090;18.348;2023-06-14T03:53:24;18.20;;;9.98;;
65581;SDS011;52231;40.090;18.348;2023-06-14T03:55:54;16.60;;;9.68;;
65581;SDS011;52231;40.090;18.348;2023-06-14T03:58:24;21.48;;;8.95;;
65581;SDS011;52231;40.090;18.348;2023-06-14T04:00:53;20.88;;;10.27;;
65581;SDS011;52231;40.090;18.348;2023-06-14T04:03:21;20.02;;;11.32;;
65581;SDS011;52231;40.090;18.348;2023-06-14T04:05:57;19.05;;;11.10;;
65581;SDS011;52231;40.090;18.348;2023-06-14T04:08:27;17.25;;;9.50;;
65581;SDS011;52231;40.090;18.348;2023-06-14T04:10:58;16.67;;;9.52;;
65581;SDS011;52231;40.090;18.348;2023-06-14T04:13:26;17.70;;;8.38;;
65581;SDS011;52231;40.090;18.348;2023-06-14T04:15:54;17.23;;;9.15;;
65581;SDS011;52231;40.090;18.348;2023-06-14T04:18:30;14.70;;;7.75;;
65581;SDS011;52231;40.090;18.348;2023-06-14T04:23:29;13.20;;;6.63;;
65581;SDS011;52231;40.090;18.348;2023-06-14T04:25:58;12.43;;;6.63;;
65581;SDS011;52231;40.090;18.348;2023-06-14T04:28:30;13.82;;;7.45;;
65581;SDS011;52231;40.090;18.348;2023-06-14T04:31:00;13.48;;;7.28;;
65581;SDS011;52231;40.090;18.348;2023-06-14T04:33:31;13.13;;;6.03;;
65581;SDS011;52231;40.090;18.348;2023-06-14T04:36:00;13.50;;;6.38;;
65581;SDS011;52231;40.090;18.348;2023-06-14T04:38:28;12.48;;;5.75;;
65581;SDS011;52231;40.090;18.348;2023-06-14T04:40:57;12.77;;;5.40;;
65581;SDS011;52231;40.090;18.348;2023-06-14T04:43:29;10.68;;;5.53;;
65581;SDS011;52231;40.090;18.348;2023-06-14T04:45:59;12.68;;;5.28;;
65581;SDS011;52231;40.090;18.348;2023-06-14T04:48:30;12.57;;;6.13;;
65581;SDS011;52231;40.090;18.348;2023-06-14T04:51:00;12.75;;;6.32;;
65581;SDS011;52231;40.090;18.348;2023-06-14T04:53:28;11.38;;;6.07;;
65581;SDS011;52231;40.090;18.348;2023-06-14T04:55:57;10.77;;;5.70;;
65581;SDS011;52231;40.090;18.348;2023-06-14T04:58:26;13.02;;;5.63;;
65581;SDS011;52231;40.090;18.348;2023-06-14T05:00:56;12.52;;;5.13;;
65581;SDS011;52231;40.090;18.348;2023-06-14T05:03:26;10.02;;;5.43;;
65581;SDS011;52231;40.090;18.348;2023-06-14T05:05:55;10.68;;;6.15;;
65581;SDS011;52231;40.090;18.348;2023-06-14T05:08:23;9.60;;;5.82;;
65581;SDS011;52231;40.090;18.348;2023-06-14T05:10:53;12.48;;;5.43;;
65581;SDS011;52231;40.090;18.348;2023-06-14T05:13:21;12.38;;;5.95;;
65581;SDS011;52231;40.090;18.348;2023-06-14T05:15:50;11.20;;;5.72;;
65581;SDS011;52231;40.090;18.348;2023-06-14T05:18:24;11.48;;;4.85;;
65581;SDS011;52231;40.090;18.348;2023-06-14T05:20:53;11.18;;;4.22;;
65581;SDS011;52231;40.090;18.348;2023-06-14T05:23:29;11.13;;;4.13;;
65581;SDS011;52231;40.090;18.348;2023-06-14T05:25:57;9.45;;;4.28;;
65581;SDS011;52231;40.090;18.348;2023-06-14T05:28:46;7.15;;;4.18;;
65581;SDS011;52231;40.090;18.348;2023-06-14T05:31:14;8.77;;;4.38;;
65581;SDS011;52231;40.090;18.348;2023-06-14T05:33:42;8.93;;;4.32;;
65581;SDS011;52231;40.090;18.348;2023-06-14T05:36:11;12.07;;;4.53;;
65581;SDS011;52231;40.090;18.348;2023-06-14T05:38:39;8.82;;;4.10;;
65581;SDS011;52231;40.090;18.348;2023-06-14T05:41:15;8.23;;;4.25;;
65581;SDS011;52231;40.090;18.348;2023-06-14T05:43:43;8.38;;;4.72;;
65581;SDS011;52231;40.090;18.348;2023-06-14T05:46:11;9.65;;;4.57;;
65581;SDS011;52231;40.090;18.348;2023-06-14T05:48:39;8.18;;;3.85;;
65581;SDS011;52231;40.090;18.348;2023-06-14T05:51:08;11.05;;;4.45;;
65581;SDS011;52231;40.090;18.348;2023-06-14T05:53:36;8.25;;;3.72;;
65581;SDS011;52231;40.090;18.348;2023-06-14T05:56:04;10.68;;;3.70;;
65581;SDS011;52231;40.090;18.348;2023-06-14T05:58:32;8.57;;;4.00;;
65581;SDS011;52231;40.090;18.348;2023-06-14T06:01:00;7.15;;;4.13;;
65581;SDS011;52231;40.090;18.348;2023-06-14T06:03:29;10.70;;;3.80;;
65581;SDS011;52231;40.090;18.348;2023-06-14T06:05:58;7.93;;;3.90;;
65581;SDS011;52231;40.090;18.348;2023-06-14T06:08:26;7.13;;;4.00;;
65581;SDS011;52231;40.090;18.348;2023-06-14T06:10:55;13.23;;;4.03;;
65581;SDS011;52231;40.090;18.348;2023-06-14T06:13:24;7.15;;;3.75;;
65581;SDS011;52231;40.090;18.348;2023-06-14T06:15:52;7.05;;;3.58;;
65581;SDS011;52231;40.090;18.348;2023-06-14T06:18:22;8.07;;;4.53;;
65581;SDS011;52231;40.090;18.348;2023-06-14T06:20:50;12.90;;;4.43;;
65581;SDS011;52231;40.090;18.348;2023-06-14T06:23:18;6.45;;;3.65;;
65581;SDS011;52231;40.090;18.348;2023-06-14T06:25:47;7.47;;;4.15;;
65581;SDS011;52231;40.090;18.348;2023-06-14T06:28:15;7.85;;;3.85;;
65581;SDS011;52231;40.090;18.348;2023-06-14T06:30:43;8.73;;;3.97;;
65581;SDS011;52231;40.090;18.348;2023-06-14T06:33:11;8.30;;;3.60;;
65581;SDS011;52231;40.090;18.348;2023-06-14T06:35:40;7.60;;;3.42;;
65581;SDS011;52231;40.090;18.348;2023-06-14T06:38:08;7.65;;;3.33;;
65581;SDS011;52231;40.090;18.348;2023-06-14T06:40:37;6.93;;;3.63;;
65581;SDS011;52231;40.090;18.348;2023-06-14T06:43:05;8.68;;;4.22;;
65581;SDS011;52231;40.090;18.348;2023-06-14T06:45:41;7.20;;;3.80;;
65581;SDS011;52231;40.090;18.348;2023-06-14T06:48:09;8.07;;;3.70;;
65581;SDS011;52231;40.090;18.348;2023-06-14T06:50:37;7.65;;;3.35;;
65581;SDS011;52231;40.090;18.348;2023-06-14T06:53:06;5.95;;;3.20;;
65581;SDS011;52231;40.090;18.348;2023-06-14T06:55:34;6.43;;;3.58;;
65581;SDS011;52231;40.090;18.348;2023-06-14T06:58:02;5.63;;;3.33;;
65581;SDS011;52231;40.090;18.348;2023-06-14T07:00:32;8.30;;;3.78;;
65581;SDS011;52231;40.090;18.348;2023-06-14T07:03:00;9.27;;;3.63;;
65581;SDS011;52231;40.090;18.348;2023-06-14T07:05:28;7.13;;;3.85;;
65581;SDS011;52231;40.090;18.348;2023-06-14T07:07:57;6.43;;;2.97;;
65581;SDS011;52231;40.090;18.348;2023-06-14T07:10:25;6.35;;;2.97;;
65581;SDS011;52231;40.090;18.348;2023-06-14T07:12:56;9.85;;;3.95;;
65581;SDS011;52231;40.090;18.348;2023-06-14T07:15:25;6.70;;;4.03;;
65581;SDS011;52231;40.090;18.348;2023-06-14T07:17:53;9.10;;;4.28;;
65581;SDS011;52231;40.090;18.348;2023-06-14T07:20:21;8.43;;;3.67;;
65581;SDS011;52231;40.090;18.348;2023-06-14T07:22:51;7.63;;;3.83;;
65581;SDS011;52231;40.090;18.348;2023-06-14T07:25:19;6.25;;;3.25;;
65581;SDS011;52231;40.090;18.348;2023-06-14T07:27:50;7.47;;;3.78;;
65581;SDS011;52231;40.090;18.348;2023-06-14T07:32:46;7.20;;;3.53;;
65581;SDS011;52231;40.090;18.348;2023-06-14T07:35:15;7.38;;;4.00;;
65581;SDS011;52231;40.090;18.348;2023-06-14T07:37:43;6.95;;;2.97;;
65581;SDS011;52231;40.090;18.348;2023-06-14T07:40:11;8.18;;;3.60;;
65581;SDS011;52231;40.090;18.348;2023-06-14T07:42:40;6.53;;;3.75;;
65581;SDS011;52231;40.090;18.348;2023-06-14T07:45:09;7.53;;;3.72;;
65581;SDS011;52231;40.090;18.348;2023-06-14T07:47:39;6.47;;;3.50;;
65581;SDS011;52231;40.090;18.348;2023-06-14T07:50:08;7.75;;;3.33;;
65581;SDS011;52231;40.090;18.348;2023-06-14T07:52:37;7.97;;;3.60;;
65581;SDS011;52231;40.090;18.348;2023-06-14T07:55:06;8.45;;;3.30;;
65581;SDS011;52231;40.090;18.348;2023-06-14T07:57:34;6.45;;;3.35;;
65581;SDS011;52231;40.090;18.348;2023-06-14T08:00:03;6.93;;;3.55;;
65581;SDS011;52231;40.090;18.348;2023-06-14T08:02:43;6.65;;;3.50;;
65581;SDS011;52231;40.090;18.348;2023-06-14T08:05:12;6.13;;;3.47;;
65581;SDS011;52231;40.090;18.348;2023-06-14T08:07:40;6.75;;;3.42;;
65581;SDS011;52231;40.090;18.348;2023-06-14T08:10:09;6.65;;;3.58;;
65581;SDS011;52231;40.090;18.348;2023-06-14T08:12:37;5.90;;;3.13;;
65581;SDS011;52231;40.090;18.348;2023-06-14T08:15:06;7.25;;;3.40;;
65581;SDS011;52231;40.090;18.348;2023-06-14T08:20:08;8.30;;;3.78;;
65581;SDS011;52231;40.090;18.348;2023-06-14T08:22:38;6.40;;;3.50;;
65581;SDS011;52231;40.090;18.348;2023-06-14T08:25:10;13.10;;;3.25;;
65581;SDS011;52231;40.090;18.348;2023-06-14T08:27:39;8.32;;;3.80;;
65581;SDS011;52231;40.090;18.348;2023-06-14T08:30:08;7.55;;;3.50;;
65581;SDS011;52231;40.090;18.348;2023-06-14T08:32:37;4.65;;;3.08;;
65581;SDS011;52231;40.090;18.348;2023-06-14T08:35:05;6.60;;;2.95;;
65581;SDS011;52231;40.090;18.348;2023-06-14T08:37:38;6.45;;;3.67;;
65581;SDS011;52231;40.090;18.348;2023-06-14T08:40:13;5.95;;;3.30;;
65581;SDS011;52231;40.090;18.348;2023-06-14T08:42:50;4.95;;;2.75;;
65581;SDS011;52231;40.090;18.348;2023-06-14T08:45:23;7.30;;;3.40;;
65581;SDS011;52231;40.090;18.348;2023-06-14T08:47:53;7.70;;;3.17;;
65581;SDS011;52231;40.090;18.348;2023-06-14T08:50:25;8.73;;;3.30;;
65581;SDS011;52231;40.090;18.348;2023-06-14T08:52:58;7.00;;;3.20;;
65581;SDS011;52231;40.090;18.348;2023-06-14T08:55:30;6.78;;;3.05;;
65581;SDS011;52231;40.090;18.348;2023-06-14T08:58:02;7.45;;;2.95;;
65581;SDS011;52231;40.090;18.348;2023-06-14T09:00:32;9.23;;;3.80;;
65581;SDS011;52231;40.090;18.348;2023-06-14T09:03:01;7.93;;;3.20;;
65581;SDS011;52231;40.090;18.348;2023-06-14T09:05:30;8.35;;;3.80;;
65581;SDS011;52231;40.090;18.348;2023-06-14T09:07:59;8.02;;;3.33;;
65581;SDS011;52231;40.090;18.348;2023-06-14T09:10:31;6.50;;;2.92;;
65581;SDS011;52231;40.090;18.348;2023-06-14T09:13:02;7.78;;;3.40;;
65581;SDS011;52231;40.090;18.348;2023-06-14T09:15:31;6.25;;;3.17;;
65581;SDS011;52231;40.090;18.348;2023-06-14T09:18:03;7.38;;;3.58;;
65581;SDS011;52231;40.090;18.348;2023-06-14T09:20:31;6.55;;;3.50;;
65581;SDS011;52231;40.090;18.348;2023-06-14T09:23:00;9.20;;;3.70;;
65581;SDS011;52231;40.090;18.348;2023-06-14T09:25:28;6.93;;;3.50;;
65581;SDS011;52231;40.090;18.348;2023-06-14T09:28:06;7.85;;;3.78;;
65581;SDS011;52231;40.090;18.348;2023-06-14T09:30:36;6.57;;;3.97;;
65581;SDS011;52231;40.090;18.348;2023-06-14T09:33:05;6.45;;;3.78;;
65581;SDS011;52231;40.090;18.348;2023-06-14T09:35:33;5.50;;;3.03;;
65581;SDS011;52231;40.090;18.348;2023-06-14T09:38:02;7.85;;;3.47;;
65581;SDS011;52231;40.090;18.348;2023-06-14T09:40:33;6.80;;;3.40;;
65581;SDS011;52231;40.090;18.348;2023-06-14T09:43:04;8.63;;;3.85;;
65581;SDS011;52231;40.090;18.348;2023-06-14T09:45:36;6.70;;;3.25;;
65581;SDS011;52231;40.090;18.348;2023-06-14T09:48:07;5.55;;;3.13;;
65581;SDS011;52231;40.090;18.348;2023-06-14T09:50:37;7.20;;;3.40;;
65581;SDS011;52231;40.090;18.348;2023-06-14T09:53:07;6.30;;;3.80;;
65581;SDS011;52231;40.090;18.348;2023-06-14T09:55:38;7.40;;;3.55;;
65581;SDS011;52231;40.090;18.348;2023-06-14T09:58:09;8.38;;;4.18;;
65581;SDS011;52231;40.090;18.348;2023-06-14T10:00:39;5.45;;;3.78;;
65581;SDS011;52231;40.090;18.348;2023-06-14T10:03:13;6.90;;;3.63;;
65581;SDS011;52231;40.090;18.348;2023-06-14T10:05:44;7.85;;;4.07;;
65581;SDS011;52231;40.090;18.348;2023-06-14T10:08:15;6.53;;;3.10;;
65581;SDS011;52231;40.090;18.348;2023-06-14T10:10:45;7.93;;;3.33;;
65581;SDS011;52231;40.090;18.348;2023-06-14T10:13:14;7.32;;;3.42;;
65581;SDS011;52231;40.090;18.348;2023-06-14T10:15:50;7.88;;;3.78;;
65581;SDS011;52231;40.090;18.348;2023-06-14T10:21:03;6.65;;;3.50;;
65581;SDS011;52231;40.090;18.348;2023-06-14T10:23:56;5.55;;;3.35;;
65581;SDS011;52231;40.090;18.348;2023-06-14T10:26:28;6.97;;;3.65;;
65581;SDS011;52231;40.090;18.348;2023-06-14T10:28:57;9.63;;;3.70;;
65581;SDS011;52231;40.090;18.348;2023-06-14T10:32:02;7.72;;;4.05;;
65581;SDS011;52231;40.090;18.348;2023-06-14T10:34:28;6.70;;;3.95;;
65581;SDS011;52231;40.090;18.348;2023-06-14T10:37:01;8.10;;;3.70;;
65581;SDS011;52231;40.090;18.348;2023-06-14T10:39:37;7.47;;;3.63;;
65581;SDS011;52231;40.090;18.348;2023-06-14T10:42:08;8.63;;;4.13;;
65581;SDS011;52231;40.090;18.348;2023-06-14T10:44:38;7.38;;;3.78;;
65581;SDS011;52231;40.090;18.348;2023-06-14T10:47:20;8.05;;;3.92;;
65581;SDS011;52231;40.090;18.348;2023-06-14T10:49:51;8.02;;;4.00;;
65581;SDS011;52231;40.090;18.348;2023-06-14T10:52:22;6.28;;;3.72;;
65581;SDS011;52231;40.090;18.348;2023-06-14T10:55:02;7.10;;;3.65;;
65581;SDS011;52231;40.090;18.348;2023-06-14T10:57:50;6.95;;;4.07;;
65581;SDS011;52231;40.090;18.348;2023-06-14T11:00:21;7.97;;;4.18;;
65581;SDS011;52231;40.090;18.348;2023-06-14T11:05:24;11.02;;;4.28;;
65581;SDS011;52231;40.090;18.348;2023-06-14T11:10:43;8.23;;;4.00;;
65581;SDS011;52231;40.090;18.348;2023-06-14T11:13:16;7.13;;;4.07;;
65581;SDS011;52231;40.090;18.348;2023-06-14T11:15:45;8.98;;;4.30;;
65581;SDS011;52231;40.090;18.348;2023-06-14T11:18:15;8.82;;;3.65;;
65581;SDS011;52231;40.090;18.348;2023-06-14T11:20:45;8.52;;;4.30;;
65581;SDS011;52231;40.090;18.348;2023-06-14T11:23:14;8.60;;;3.63;;
65581;SDS011;52231;40.090;18.348;2023-06-14T11:25:42;11.80;;;3.90;;
65581;SDS011;52231;40.090;18.348;2023-06-14T11:28:10;7.82;;;4.10;;
65581;SDS011;52231;40.090;18.348;2023-06-14T11:30:38;7.47;;;4.25;;
65581;SDS011;52231;40.090;18.348;2023-06-14T11:33:09;8.35;;;4.20;;
65581;SDS011;52231;40.090;18.348;2023-06-14T11:35:38;8.75;;;4.22;;
65581;SDS011;52231;40.090;18.348;2023-06-14T11:38:07;9.73;;;4.20;;
65581;SDS011;52231;40.090;18.348;2023-06-14T11:40:38;11.88;;;4.50;;
65581;SDS011;52231;40.090;18.348;2023-06-14T11:43:06;7.18;;;4.15;;
65581;SDS011;52231;40.090;18.348;2023-06-14T11:45:34;8.60;;;4.28;;
65581;SDS011;52231;40.090;18.348;2023-06-14T11:48:03;6.97;;;3.55;;
65581;SDS011;52231;40.090;18.348;2023-06-14T11:50:31;8.40;;;4.03;;
65581;SDS011;52231;40.090;18.348;2023-06-14T11:53:00;7.20;;;3.95;;
65581;SDS011;52231;40.090;18.348;2023-06-14T11:55:37;8.50;;;3.47;;
65581;SDS011;52231;40.090;18.348;2023-06-14T11:58:07;7.43;;;4.20;;
65581;SDS011;52231;40.090;18.348;2023-06-14T12:00:37;6.38;;;3.78;;
65581;SDS011;52231;40.090;18.348;2023-06-14T12:03:06;7.93;;;3.83;;
65581;SDS011;52231;40.090;18.348;2023-06-14T12:05:34;7.68;;;3.55;;
65581;SDS011;52231;40.090;18.348;2023-06-14T12:08:03;7.13;;;3.47;;
65581;SDS011;52231;40.090;18.348;2023-06-14T12:10:41;6.18;;;3.38;;
65581;SDS011;52231;40.090;18.348;2023-06-14T12:13:11;7.18;;;3.45;;
65581;SDS011;52231;40.090;18.348;2023-06-14T12:15:39;6.90;;;3.60;;
65581;SDS011;52231;40.090;18.348;2023-06-14T12:18:08;7.90;;;3.60;;
65581;SDS011;52231;40.090;18.348;2023-06-14T12:20:38;6.93;;;3.28;;
65581;SDS011;52231;40.090;18.348;2023-06-14T12:23:07;8.15;;;3.42;;
65581;SDS011;52231;40.090;18.348;2023-06-14T12:25:37;7.35;;;3.63;;
65581;SDS011;52231;40.090;18.348;2023-06-14T12:28:09;6.72;;;3.10;;
65581;SDS011;52231;40.090;18.348;2023-06-14T12:30:38;7.68;;;3.47;;
65581;SDS011;52231;40.090;18.348;2023-06-14T12:33:17;7.28;;;3.42;;
65581;SDS011;52231;40.090;18.348;2023-06-14T12:36:08;7.97;;;3.28;;
65581;SDS011;52231;40.090;18.348;2023-06-14T12:38:37;8.82;;;3.83;;
65581;SDS011;52231;40.090;18.348;2023-06-14T12:41:05;8.32;;;3.88;;
65581;SDS011;52231;40.090;18.348;2023-06-14T12:43:34;7.45;;;3.70;;
65581;SDS011;52231;40.090;18.348;2023-06-14T12:46:11;6.38;;;3.58;;
65581;SDS011;52231;40.090;18.348;2023-06-14T12:48:39;9.98;;;3.53;;
65581;SDS011;52231;40.090;18.348;2023-06-14T12:51:07;7.80;;;3.97;;
65581;SDS011;52231;40.090;18.348;2023-06-14T12:53:36;7.82;;;3.17;;
65581;SDS011;52231;40.090;18.348;2023-06-14T12:56:04;8.35;;;4.10;;
65581;SDS011;52231;40.090;18.348;2023-06-14T12:58:32;6.88;;;3.63;;
65581;SDS011;52231;40.090;18.348;2023-06-14T13:01:00;10.20;;;4.10;;
65581;SDS011;52231;40.090;18.348;2023-06-14T13:03:28;8.82;;;4.28;;
65581;SDS011;52231;40.090;18.348;2023-06-14T13:05:57;6.30;;;3.33;;
65581;SDS011;52231;40.090;18.348;2023-06-14T13:08:25;9.23;;;3.72;;
65581;SDS011;52231;40.090;18.348;2023-06-14T13:10:53;6.97;;;3.50;;
65581;SDS011;52231;40.090;18.348;2023-06-14T13:13:22;9.77;;;3.65;;
65581;SDS011;52231;40.090;18.348;2023-06-14T13:15:54;7.07;;;3.08;;
65581;SDS011;52231;40.090;18.348;2023-06-14T13:18:41;6.45;;;3.60;;
65581;SDS011;52231;40.090;18.348;2023-06-14T13:21:10;8.60;;;4.20;;
65581;SDS011;52231;40.090;18.348;2023-06-14T13:23:38;6.07;;;3.70;;
65581;SDS011;52231;40.090;18.348;2023-06-14T13:26:06;9.00;;;3.83;;
65581;SDS011;52231;40.090;18.348;2023-06-14T13:28:34;8.65;;;3.63;;
65581;SDS011;52231;40.090;18.348;2023-06-14T13:31:03;6.00;;;3.08;;
65581;SDS011;52231;40.090;18.348;2023-06-14T13:33:31;7.82;;;3.30;;
65581;SDS011;52231;40.090;18.348;2023-06-14T13:35:59;8.88;;;3.72;;
65581;SDS011;52231;40.090;18.348;2023-06-14T13:38:27;10.48;;;3.78;;
65581;SDS011;52231;40.090;18.348;2023-06-14T13:40:56;9.80;;;4.10;;
65581;SDS011;52231;40.090;18.348;2023-06-14T13:43:24;8.48;;;3.70;;
65581;SDS011;52231;40.090;18.348;2023-06-14T13:45:52;6.47;;;3.65;;
65581;SDS011;52231;40.090;18.348;2023-06-14T13:48:20;8.35;;;3.10;;
65581;SDS011;52231;40.090;18.348;2023-06-14T13:50:49;6.47;;;3.30;;
65581;SDS011;52231;40.090;18.348;2023-06-14T13:53:17;7.10;;;3.50;;
65581;SDS011;52231;40.090;18.348;2023-06-14T13:55:45;6.65;;;3.60;;
65581;SDS011;52231;40.090;18.348;2023-06-14T13:58:13;7.65;;;2.97;;
65581;SDS011;52231;40.090;18.348;2023-06-14T14:00:42;7.95;;;3.78;;
65581;SDS011;52231;40.090;18.348;2023-06-14T14:03:10;7.50;;;3.63;;
65581;SDS011;52231;40.090;18.348;2023-06-14T14:05:39;7.45;;;3.90;;
65581;SDS011;52231;40.090;18.348;2023-06-14T14:08:07;8.63;;;4.00;;
65581;SDS011;52231;40.090;18.348;2023-06-14T14:10:38;6.90;;;3.47;;
65581;SDS011;52231;40.090;18.348;2023-06-14T14:13:06;9.70;;;4.00;;
65581;SDS011;52231;40.090;18.348;2023-06-14T14:15:34;8.95;;;3.47;;
65581;SDS011;52231;40.090;18.348;2023-06-14T14:18:03;8.95;;;3.53;;
65581;SDS011;52231;40.090;18.348;2023-06-14T14:20:31;7.95;;;3.55;;
65581;SDS011;52231;40.090;18.348;2023-06-14T14:23:00;9.43;;;3.42;;
65581;SDS011;52231;40.090;18.348;2023-06-14T14:25:29;7.50;;;3.20;;
65581;SDS011;52231;40.090;18.348;2023-06-14T14:30:25;8.65;;;3.95;;
65581;SDS011;52231;40.090;18.348;2023-06-14T14:32:53;7.28;;;3.67;;
65581;SDS011;52231;40.090;18.348;2023-06-14T14:35:22;7.50;;;3.38;;
65581;SDS011;52231;40.090;18.348;2023-06-14T14:37:52;12.13;;;4.30;;
65581;SDS011;52231;40.090;18.348;2023-06-14T14:40:20;9.07;;;3.45;;
65581;SDS011;52231;40.090;18.348;2023-06-14T14:42:49;9.18;;;3.40;;
65581;SDS011;52231;40.090;18.348;2023-06-14T14:45:17;8.48;;;3.90;;
65581;SDS011;52231;40.090;18.348;2023-06-14T14:47:45;8.88;;;3.85;;
65581;SDS011;52231;40.090;18.348;2023-06-14T14:50:13;7.65;;;3.75;;
65581;SDS011;52231;40.090;18.348;2023-06-14T14:52:42;10.20;;;4.20;;
65581;SDS011;52231;40.090;18.348;2023-06-14T14:55:10;7.22;;;3.47;;
65581;SDS011;52231;40.090;18.348;2023-06-14T15:00:06;8.00;;;4.03;;
65581;SDS011;52231;40.090;18.348;2023-06-14T15:02:35;8.13;;;3.95;;
65581;SDS011;52231;40.090;18.348;2023-06-14T15:05:03;8.18;;;4.28;;
65581;SDS011;52231;40.090;18.348;2023-06-14T15:07:32;7.20;;;3.47;;
65581;SDS011;52231;40.090;18.348;2023-06-14T15:10:05;9.95;;;4.07;;
65581;SDS011;52231;40.090;18.348;2023-06-14T15:12:34;7.93;;;4.10;;
65581;SDS011;52231;40.090;18.348;2023-06-14T15:15:03;7.93;;;3.60;;
65581;SDS011;52231;40.090;18.348;2023-06-14T15:17:32;8.45;;;3.42;;
65581;SDS011;52231;40.090;18.348;2023-06-14T15:20:00;7.75;;;4.28;;
65581;SDS011;52231;40.090;18.348;2023-06-14T15:22:31;7.78;;;4.15;;
65581;SDS011;52231;40.090;18.348;2023-06-14T15:24:59;10.38;;;4.30;;
65581;SDS011;52231;40.090;18.348;2023-06-14T15:27:28;9.95;;;4.53;;
65581;SDS011;52231;40.090;18.348;2023-06-14T15:29:56;10.65;;;4.28;;
65581;SDS011;52231;40.090;18.348;2023-06-14T15:32:24;9.63;;;4.55;;
65581;SDS011;52231;40.090;18.348;2023-06-14T15:34:52;10.07;;;3.85;;
65581;SDS011;52231;40.090;18.348;2023-06-14T15:37:21;9.43;;;4.03;;
65581;SDS011;52231;40.090;18.348;2023-06-14T15:39:49;8.95;;;4.43;;
65581;SDS011;52231;40.090;18.348;2023-06-14T15:44:45;8.40;;;3.50;;